Depoe Bay, OR

6:48 AM PST on February 12, 2016 (GMT -0800)
StoneBridge | | Change Station
CLOSE
Current Station
Personal Weather Station
Location: Depoe Bay, OR
Elevation: 115 ft
Nearby Weather Stations

Elev 115 ft 44.81 °N, 124.05 °W | Updated 7 seconds ago

Overcast
Overcast
55.4 °F
Feels Like 55.4 °F
N
5.1
Wind Variable Wind from ESE
Gusts 7.4 mph

Today
High -- | Low -- °F
--% Chance of Precip.
Yesterday
High -- | Low -- °F
Precip. -- in
Pressure 30.16 in
Visibility 3.0 miles
Clouds Overcast 800 ft
Dew Point 31 °F
Humidity 39%
Rainfall 0.05 in
Snow Depth Not available.
7:21 AM 5:39 PM
Waxing Crescent, 21% visible
METAR KONP 121435Z AUTO 18012G19KT 3SM -RA OVC008 12/11 A3016 RMK AO2 P0004
Pressure 30.16 in
Visibility 3.0 miles
Clouds Overcast 800 ft
Dew Point 31 °F
Humidity 39%
Rainfall 0.05 in
Snow Depth Not available.
7:21 AM 5:39 PM
Waxing Crescent, 21% visible
METAR KONP 121435Z AUTO 18012G19KT 3SM -RA OVC008 12/11 A3016 RMK AO2 P0004

10-Day Weather Forecast

Almanac

Astronomy

Feb. 12, 2016 Rise Set
Actual Time
Civil Twilight
Nautical Twilight
Astronomical Twilight
Moon
Length of Visible Light
Length of Day
Tomorrow will be .
, % of the Moon is Illuminated

Today's Extremes

State Highs State Lows

Community

WunderPhotos

Upload Photos

1,892,318 photos uploaded!

WunderBlog® & News

Nearby

Air Quality

  Air Quality AQ Index Pollutant
Not available.

Snow Depth

Station Depth Elevation

Earthquake Activity

City Distance Mag. Time & Date
Minimum magnitude displayed is 2.5.

Coastal Water Temperatures

Place Temperature

Stations

Nearby Weather Stations

Station Location Temp. Windchill Dew Point Humidity Wind Precip. Elev Updated Type
                   

Watches & Warnings

There are currently no watches in effect.